Time,TemperatureF,DewpointF,PressureIn,WindDirection,WindDirectionDegrees,WindSpeedMPH,WindSpeedGustMPH,Humidity,HourlyPrecipIn,Conditions,Clouds,dailyrainin,SolarRadiationWatts/m^2,SoftwareType,DateUTC
2013-11-12 00:09:00,30.2,22.3,30.69,North,9,7.0,8.0,72,0.00,,,0.00,0,Wunderground v.1.15,2013-11-12 06:09:00,
2013-11-12 00:14:00,30.1,22.5,30.69,NNW,337,7.0,13.0,73,0.00,,,0.00,0,Wunderground v.1.15,2013-11-12 06:14:00,
2013-11-12 00:24:00,29.9,22.3,30.70,NE,50,11.0,11.0,73,0.00,,,0.00,0,Wunderground v.1.15,2013-11-12 06:24:00,
2013-11-12 00:29:00,29.8,21.9,30.70,NNW,341,10.0,11.0,72,0.00,,,0.00,0,Wunderground v.1.15,2013-11-12 06:29:00,
2013-11-12 00:34:00,29.7,22.1,30.70,North,355,9.0,16.0,73,0.00,,,0.00,0,Wunderground v.1.15,2013-11-12 06:34:00,
2013-11-12 00:44:00,29.4,21.5,30.71,North,351,12.0,16.0,72,0.00,,,0.00,0,Wunderground v.1.15,2013-11-12 06:44:00,
2013-11-12 00:49:00,29.3,21.7,30.71,NNW,338,11.0,13.0,73,0.00,,,0.00,0,Wunderground v.1.15,2013-11-12 06:49:00,
2013-11-12 00:59:00,29.1,21.5,30.72,NNE,15,10.0,10.0,73,0.00,,,0.00,0,Wunderground v.1.15,2013-11-12 06:59:00,
2013-11-12 01:04:00,28.8,21.6,30.72,North,5,11.0,18.0,74,0.00,,,0.00,0,Wunderground v.1.15,2013-11-12 07:04:00,
2013-11-12 01:09:00,28.7,21.8,30.72,NNW,339,11.0,11.0,75,0.00,,,0.00,0,Wunderground v.1.15,2013-11-12 07:09:00,
2013-11-12 01:19:00,28.6,-99.9,30.73,NNE,22,10.0,10.0,255,0.00,,,0.00,0,Wunderground v.1.15,2013-11-12 07:19:00,
2013-11-12 01:24:00,28.3,21.7,30.73,NE,44,8.0,10.0,76,0.00,,,0.00,0,Wunderground v.1.15,2013-11-12 07:24:00,
2013-11-12 01:34:00,28.2,21.3,30.73,North,360,9.0,9.0,75,0.00,,,0.00,0,Wunderground v.1.15,2013-11-12 07:34:00,
2013-11-12 01:39:00,28.1,21.2,30.73,NNW,343,9.0,11.0,75,0.00,,,0.00,0,Wunderground v.1.15,2013-11-12 07:39:00,
2013-11-12 01:44:00,28.0,21.1,30.73,NNW,346,9.0,11.0,75,0.00,,,0.00,0,Wunderground v.1.15,2013-11-12 07:44:00,
2013-11-12 01:54:00,27.7,19.2,30.74,North,350,8.0,10.0,70,0.00,,,0.00,0,Wunderground v.1.15,2013-11-12 07:54:00,
2013-11-12 01:59:00,27.5,18.3,30.74,NNE,12,7.0,7.0,68,0.00,,,0.00,0,Wunderground v.1.15,2013-11-12 07:59:00,
2013-11-12 02:09:00,27.1,18.3,30.75,NNE,30,9.0,9.0,69,0.00,,,0.00,0,Wunderground v.1.15,2013-11-12 08:09:00,
2013-11-12 02:19:00,26.6,17.8,30.75,North,5,9.0,9.0,69,0.00,,,0.00,0,Wunderground v.1.15,2013-11-12 08:19:00,
2013-11-12 02:24:00,26.2,17.1,30.76,NNW,338,10.0,17.0,68,0.00,,,0.00,0,Wunderground v.1.15,2013-11-12 08:24:00,
2013-11-12 02:29:00,26.1,17.3,30.76,NE,42,10.0,10.0,69,0.00,,,0.00,0,Wunderground v.1.15,2013-11-12 08:29:00,
2013-11-12 02:39:00,25.8,17.4,30.76,ENE,75,8.0,8.0,70,0.00,,,0.00,0,Wunderground v.1.15,2013-11-12 08:39:00,
2013-11-12 02:44:00,25.7,17.3,30.77,NE,34,9.0,9.0,70,0.00,,,0.00,0,Wunderground v.1.15,2013-11-12 08:44:00,
2013-11-12 02:54:00,25.5,17.4,30.77,North,355,9.0,9.0,71,0.00,,,0.00,0,Wunderground v.1.15,2013-11-12 08:54:00,
2013-11-12 02:59:00,25.4,17.3,30.78,NNE,26,9.0,13.0,71,0.00,,,0.00,0,Wunderground v.1.15,2013-11-12 08:59:00,
2013-11-12 03:04:00,25.3,17.5,30.78,NNE,32,8.0,13.0,72,0.00,,,0.00,0,Wunderground v.1.15,2013-11-12 09:04:00,
2013-11-12 03:14:00,25.1,17.7,30.78,NE,41,7.0,16.0,73,0.00,,,0.00,0,Wunderground v.1.15,2013-11-12 09:14:00,
2013-11-12 03:19:00,24.9,17.1,30.78,NE,34,7.0,7.0,72,0.00,,,0.00,0,Wunderground v.1.15,2013-11-12 09:19:00,
2013-11-12 03:29:00,24.7,17.0,30.78,NE,47,7.0,11.0,72,0.00,,,0.00,0,Wunderground v.1.15,2013-11-12 09:29:00,
2013-11-12 03:34:00,24.5,16.8,30.79,NW,313,8.0,11.0,72,0.00,,,0.00,0,Wunderground v.1.15,2013-11-12 09:34:00,
2013-11-12 03:39:00,24.4,16.7,30.79,NE,40,8.0,8.0,72,0.00,,,0.00,0,Wunderground v.1.15,2013-11-12 09:39:00,
2013-11-12 03:49:00,24.3,16.6,30.80,NNE,26,8.0,8.0,72,0.00,,,0.00,0,Wunderground v.1.15,2013-11-12 09:49:00,
2013-11-12 03:54:00,24.2,17.1,30.80,NNE,14,7.0,8.0,74,0.00,,,0.00,0,Wunderground v.1.15,2013-11-12 09:54:00,
2013-11-12 04:04:00,23.8,16.7,30.81,NNE,16,6.0,6.0,74,0.00,,,0.00,0,Wunderground v.1.15,2013-11-12 10:04:00,
2013-11-12 04:09:00,23.6,16.2,30.81,North,11,6.0,7.0,73,0.00,,,0.00,0,Wunderground v.1.15,2013-11-12 10:09:00,
2013-11-12 04:19:00,23.5,16.1,30.82,NNW,342,7.0,8.0,73,0.00,,,0.00,0,Wunderground v.1.15,2013-11-12 10:19:00,
2013-11-12 04:24:00,23.4,16.3,30.83,NE,54,8.0,8.0,74,0.00,,,0.00,0,Wunderground v.1.15,2013-11-12 10:24:00,
2013-11-12 04:29:00,23.3,16.2,30.83,NE,44,8.0,8.0,74,0.00,,,0.00,0,Wunderground v.1.15,2013-11-12 10:29:00,
2013-11-12 04:39:00,23.0,15.9,30.83,NNW,332,8.0,8.0,74,0.00,,,0.00,0,Wunderground v.1.15,2013-11-12 10:39:00,
2013-11-12 04:44:00,22.9,15.8,30.83,NNW,344,8.0,10.0,74,0.00,,,0.00,0,Wunderground v.1.15,2013-11-12 10:44:00,
2013-11-12 04:54:00,22.6,15.6,30.84,North,355,7.0,11.0,74,0.00,,,0.00,0,Wunderground v.1.15,2013-11-12 10:54:00,
2013-11-12 04:59:00,22.5,15.5,30.84,NNE,16,7.0,8.0,74,0.00,,,0.00,0,Wunderground v.1.15,2013-11-12 10:59:00,
2013-11-12 05:04:00,22.4,15.4,30.84,NNE,22,7.0,8.0,74,0.00,,,0.00,0,Wunderground v.1.15,2013-11-12 11:04:00,
2013-11-12 05:14:00,22.3,15.9,30.85,NW,325,6.0,7.0,76,0.00,,,0.00,0,Wunderground v.1.15,2013-11-12 11:14:00,
2013-11-12 05:19:00,22.2,16.1,30.85,NNE,12,5.0,7.0,77,0.00,,,0.00,0,Wunderground v.1.15,2013-11-12 11:19:00,
2013-11-12 05:29:00,22.0,16.5,30.85,North,360,6.0,6.0,79,0.00,,,0.00,0,Wunderground v.1.15,2013-11-12 11:29:00,
2013-11-12 05:34:00,21.8,16.3,30.85,North,5,6.0,6.0,79,0.00,,,0.00,0,Wunderground v.1.15,2013-11-12 11:34:00,
2013-11-12 05:39:00,21.6,16.4,30.85,North,9,5.0,7.0,80,0.00,,,0.00,0,Wunderground v.1.15,2013-11-12 11:39:00,
2013-11-12 05:49:00,21.5,16.3,30.86,NNW,338,7.0,8.0,80,0.00,,,0.00,0,Wunderground v.1.15,2013-11-12 11:49:00,
2013-11-12 05:54:00,21.3,16.4,30.86,North,5,5.0,9.0,81,0.00,,,0.00,0,Wunderground v.1.15,2013-11-12 11:54:00,
2013-11-12 06:04:00,21.1,16.2,30.86,NW,321,6.0,8.0,81,0.00,,,0.00,0,Wunderground v.1.15,2013-11-12 12:04:00,
2013-11-12 06:09:00,21.0,15.8,30.86,NNE,15,5.0,8.0,80,0.00,,,0.00,0,Wunderground v.1.15,2013-11-12 12:09:00,
2013-11-12 06:14:00,20.9,16.0,30.86,NNW,340,5.0,8.0,81,0.00,,,0.00,0,Wunderground v.1.15,2013-11-12 12:14:00,
2013-11-12 06:24:00,20.7,15.8,30.87,North,355,5.0,11.0,81,0.00,,,0.00,0,Wunderground v.1.15,2013-11-12 12:24:00,
2013-11-12 06:29:00,20.6,15.7,30.87,North,360,6.0,6.0,81,0.00,,,0.00,0,Wunderground v.1.15,2013-11-12 12:29:00,
2013-11-12 06:39:00,20.4,15.8,30.88,NW,326,6.0,6.0,82,0.00,,,0.00,0,Wunderground v.1.15,2013-11-12 12:39:00,
2013-11-12 06:44:00,20.3,15.7,30.89,North,5,6.0,12.0,82,0.00,,,0.00,0,Wunderground v.1.15,2013-11-12 12:44:00,
2013-11-12 06:49:00,20.2,15.6,30.89,NNW,344,6.0,9.0,82,0.00,,,0.00,0,Wunderground v.1.15,2013-11-12 12:49:00,
2013-11-12 06:59:00,20.0,15.7,30.90,North,360,7.0,7.0,83,0.00,,,0.00,9,Wunderground v.1.15,2013-11-12 12:59:00,
2013-11-12 07:04:00,19.9,15.6,30.90,North,351,7.0,7.0,83,0.00,,,0.00,11,Wunderground v.1.15,2013-11-12 13:04:00,
2013-11-12 07:14:00,19.8,15.5,30.91,North,355,7.0,8.0,83,0.00,,,0.00,18,Wunderground v.1.15,2013-11-12 13:14:00,
2013-11-12 07:19:00,19.9,15.6,30.91,NNE,22,7.0,7.0,83,0.00,,,0.00,19,Wunderground v.1.15,2013-11-12 13:19:00,
2013-11-12 07:29:00,19.9,15.6,30.92,North,360,6.0,6.0,83,0.00,,,0.00,30,Wunderground v.1.15,2013-11-12 13:29:00,
2013-11-12 07:34:00,20.0,15.7,30.92,North,5,6.0,6.0,83,0.00,,,0.00,47,Wunderground v.1.15,2013-11-12 13:34:00,
2013-11-12 07:44:00,20.3,15.7,30.92,North,355,6.0,8.0,82,0.00,,,0.00,46,Wunderground v.1.15,2013-11-12 13:44:00,
2013-11-12 07:49:00,20.4,15.8,30.93,NNW,342,5.0,8.0,82,0.00,,,0.00,47,Wunderground v.1.15,2013-11-12 13:49:00,
2013-11-12 07:54:00,20.6,16.0,30.93,NNW,345,5.0,11.0,82,0.00,,,0.00,98,Wunderground v.1.15,2013-11-12 13:54:00,
2013-11-12 08:04:00,20.9,16.0,30.93,NNE,16,6.0,6.0,81,0.00,,,0.00,171,Wunderground v.1.15,2013-11-12 14:04:00,
2013-11-12 08:09:00,21.3,16.4,30.93,NNW,346,5.0,5.0,81,0.00,,,0.00,200,Wunderground v.1.15,2013-11-12 14:09:00,
2013-11-12 08:19:00,21.6,16.1,30.93,NNE,23,6.0,6.0,79,0.00,,,0.00,234,Wunderground v.1.15,2013-11-12 14:19:00,
2013-11-12 08:24:00,21.7,16.2,30.93,North,9,6.0,7.0,79,0.00,,,0.00,250,Wunderground v.1.15,2013-11-12 14:24:00,
2013-11-12 08:29:00,22.0,16.2,30.94,NNE,25,6.0,6.0,78,0.00,,,0.00,265,Wunderground v.1.15,2013-11-12 14:29:00,
2013-11-12 08:39:00,22.7,16.6,30.94,NNE,28,4.0,8.0,77,0.00,,,0.00,295,Wunderground v.1.15,2013-11-12 14:39:00,
2013-11-12 08:44:00,22.9,16.5,30.95,North,11,5.0,9.0,76,0.00,,,0.00,308,Wunderground v.1.15,2013-11-12 14:44:00,
2013-11-12 08:54:00,23.1,16.4,30.95,North,351,6.0,9.0,75,0.00,,,0.00,336,Wunderground v.1.15,2013-11-12 14:54:00,
2013-11-12 08:59:00,23.3,16.5,30.95,North,355,6.0,6.0,75,0.00,,,0.00,350,Wunderground v.1.15,2013-11-12 14:59:00,
2013-11-12 09:09:00,23.8,16.7,30.95,NNE,19,5.0,7.0,74,0.00,,,0.00,378,Wunderground v.1.15,2013-11-12 15:09:00,
2013-11-12 09:14:00,24.1,17.0,30.95,North,355,6.0,7.0,74,0.00,,,0.00,390,Wunderground v.1.15,2013-11-12 15:14:00,
2013-11-12 09:24:00,24.5,16.8,30.95,NE,34,5.0,6.0,72,0.00,,,0.00,413,Wunderground v.1.15,2013-11-12 15:24:00,
2013-11-12 09:29:00,24.6,16.9,30.96,NE,37,6.0,6.0,72,0.00,,,0.00,424,Wunderground v.1.15,2013-11-12 15:29:00,
2013-11-12 09:34:00,24.8,17.1,30.96,North,360,6.0,6.0,72,0.00,,,0.00,436,Wunderground v.1.15,2013-11-12 15:34:00,
2013-11-12 09:44:00,25.4,17.0,30.96,NNE,24,6.0,8.0,70,0.00,,,0.00,459,Wunderground v.1.15,2013-11-12 15:44:00,
2013-11-12 09:49:00,25.8,17.0,30.96,North,5,6.0,6.0,69,0.00,,,0.00,469,Wunderground v.1.15,2013-11-12 15:49:00,
2013-11-12 09:59:00,26.1,17.3,30.96,North,355,5.0,6.0,69,0.00,,,0.00,489,Wunderground v.1.15,2013-11-12 15:59:00,
2013-11-12 10:04:00,26.5,17.7,30.96,NE,44,5.0,6.0,69,0.00,,,0.00,499,Wunderground v.1.15,2013-11-12 16:04:00,
2013-11-12 10:09:00,26.6,17.5,30.96,NNW,337,4.0,4.0,68,0.00,,,0.00,506,Wunderground v.1.15,2013-11-12 16:09:00,
2013-11-12 10:19:00,26.7,17.2,30.96,North,350,7.0,7.0,67,0.00,,,0.00,526,Wunderground v.1.15,2013-11-12 16:19:00,
2013-11-12 10:24:00,27.2,17.7,30.96,North,350,6.0,7.0,67,0.00,,,0.00,534,Wunderground v.1.15,2013-11-12 16:24:00,
2013-11-12 10:34:00,27.8,17.9,30.96,North,355,6.0,9.0,66,0.00,,,0.00,548,Wunderground v.1.15,2013-11-12 16:34:00,
2013-11-12 10:39:00,27.9,17.3,30.96,NE,36,7.0,7.0,64,0.00,,,0.00,555,Wunderground v.1.15,2013-11-12 16:39:00,
2013-11-12 10:44:00,28.4,18.1,30.96,NE,39,6.0,7.0,65,0.00,,,0.00,559,Wunderground v.1.15,2013-11-12 16:44:00,
2013-11-12 10:54:00,28.8,17.8,30.96,NE,38,5.0,5.0,63,0.00,,,0.00,573,Wunderground v.1.15,2013-11-12 16:54:00,
2013-11-12 10:59:00,28.8,17.8,30.95,NNE,25,5.0,5.0,63,0.00,,,0.00,578,Wunderground v.1.15,2013-11-12 16:59:00,
2013-11-12 11:09:00,29.1,17.3,30.95,North,5,6.0,6.0,61,0.00,,,0.00,587,Wunderground v.1.15,2013-11-12 17:09:00,
2013-11-12 11:14:00,29.5,17.7,30.95,NE,37,5.0,6.0,61,0.00,,,0.00,591,Wunderground v.1.15,2013-11-12 17:14:00,
2013-11-12 11:19:00,29.1,16.9,30.95,North,360,5.0,10.0,60,0.00,,,0.00,592,Wunderground v.1.15,2013-11-12 17:19:00,
2013-11-12 11:29:00,29.5,16.5,30.95,North,360,7.0,9.0,58,0.00,,,0.00,599,Wunderground v.1.15,2013-11-12 17:29:00,
2013-11-12 11:34:00,29.7,16.7,30.94,NNE,15,7.0,9.0,58,0.00,,,0.00,601,Wunderground v.1.15,2013-11-12 17:34:00,
2013-11-12 11:44:00,30.3,16.0,30.94,NNW,348,7.0,8.0,55,0.00,,,0.00,603,Wunderground v.1.15,2013-11-12 17:44:00,
2013-11-12 11:49:00,30.3,15.2,30.94,NNE,12,7.0,10.0,53,0.00,,,0.00,605,Wunderground v.1.15,2013-11-12 17:49:00,
2013-11-12 11:54:00,30.4,16.1,30.93,North,355,7.0,10.0,55,0.00,,,0.00,606,Wunderground v.1.15,2013-11-12 17:54:00,
2013-11-12 12:04:00,30.5,15.4,30.94,NW,319,8.0,11.0,53,0.00,,,0.00,605,Wunderground v.1.15,2013-11-12 18:04:00,
2013-11-12 12:09:00,31.1,17.2,30.93,NW,318,6.0,9.0,56,0.00,,,0.00,606,Wunderground v.1.15,2013-11-12 18:09:00,
2013-11-12 12:19:00,31.2,16.5,30.93,NNW,346,8.0,10.0,54,0.00,,,0.00,601,Wunderground v.1.15,2013-11-12 18:19:00,
2013-11-12 12:24:00,31.0,16.3,30.93,NW,313,9.0,10.0,54,0.00,,,0.00,601,Wunderground v.1.15,2013-11-12 18:24:00,
2013-11-12 12:34:00,31.5,15.4,30.92,NNW,329,5.0,6.0,51,0.00,,,0.00,596,Wunderground v.1.15,2013-11-12 18:34:00,
2013-11-12 12:39:00,31.7,15.6,30.92,NNW,339,6.0,6.0,51,0.00,,,0.00,592,Wunderground v.1.15,2013-11-12 18:39:00,
2013-11-12 12:44:00,31.8,16.2,30.92,NNW,346,5.0,6.0,52,0.00,,,0.00,589,Wunderground v.1.15,2013-11-12 18:44:00,
2013-11-12 12:54:00,32.1,16.4,30.91,North,355,4.0,5.0,52,0.00,,,0.00,582,Wunderground v.1.15,2013-11-12 18:54:00,
2013-11-12 12:59:00,32.3,16.6,30.91,NNE,33,5.0,5.0,52,0.00,,,0.00,573,Wunderground v.1.15,2013-11-12 18:59:00,
2013-11-12 13:09:00,32.2,16.1,30.91,NW,325,7.0,11.0,51,0.00,,,0.00,566,Wunderground v.1.15,2013-11-12 19:09:00,
2013-11-12 13:14:00,32.0,15.9,30.91,NW,316,7.0,11.0,51,0.00,,,0.00,557,Wunderground v.1.15,2013-11-12 19:14:00,
2013-11-12 13:19:00,32.4,15.8,30.90,NW,317,6.0,8.0,50,0.00,,,0.00,552,Wunderground v.1.15,2013-11-12 19:19:00,
2013-11-12 13:29:00,32.3,15.7,30.90,NNW,338,7.0,7.0,50,0.00,,,0.00,536,Wunderground v.1.15,2013-11-12 19:29:00,
2013-11-12 13:34:00,32.7,15.1,30.90,NNW,341,8.0,9.0,48,0.00,,,0.00,531,Wunderground v.1.15,2013-11-12 19:34:00,
2013-11-12 13:44:00,33.0,15.4,30.89,NE,43,5.0,7.0,48,0.00,,,0.00,512,Wunderground v.1.15,2013-11-12 19:44:00,
2013-11-12 13:49:00,33.4,15.3,30.89,NNW,344,5.0,6.0,47,0.00,,,0.00,504,Wunderground v.1.15,2013-11-12 19:49:00,
2013-11-12 13:54:00,33.4,15.3,30.89,North,349,6.0,8.0,47,0.00,,,0.00,496,Wunderground v.1.15,2013-11-12 19:54:00,
2013-11-12 14:04:00,33.6,14.5,30.88,NNW,348,6.0,9.0,45,0.00,,,0.00,473,Wunderground v.1.15,2013-11-12 20:04:00,
2013-11-12 14:09:00,33.8,14.7,30.88,NNE,15,6.0,6.0,45,0.00,,,0.00,462,Wunderground v.1.15,2013-11-12 20:09:00,
2013-11-12 14:19:00,33.9,14.8,30.88,NNE,15,5.0,5.0,45,0.00,,,0.00,441,Wunderground v.1.15,2013-11-12 20:19:00,
2013-11-12 14:24:00,34.0,14.3,30.88,NNW,347,7.0,7.0,44,0.00,,,0.00,429,Wunderground v.1.15,2013-11-12 20:24:00,
2013-11-12 14:29:00,34.0,14.9,30.88,NNW,342,6.0,9.0,45,0.00,,,0.00,418,Wunderground v.1.15,2013-11-12 20:29:00,
2013-11-12 14:39:00,33.8,13.6,30.88,NW,318,7.0,7.0,43,0.00,,,0.00,394,Wunderground v.1.15,2013-11-12 20:39:00,
2013-11-12 14:44:00,34.0,13.3,30.88,WNW,290,6.0,7.0,42,0.00,,,0.00,380,Wunderground v.1.15,2013-11-12 20:44:00,
2013-11-12 14:54:00,34.2,14.0,30.88,NNE,31,7.0,8.0,43,0.00,,,0.00,355,Wunderground v.1.15,2013-11-12 20:54:00,
2013-11-12 14:59:00,34.2,14.0,30.88,NNW,336,6.0,8.0,43,0.00,,,0.00,341,Wunderground v.1.15,2013-11-12 20:59:00,
2013-11-12 15:04:00,34.3,13.6,30.88,NW,322,6.0,8.0,42,0.00,,,0.00,327,Wunderground v.1.15,2013-11-12 21:04:00,
2013-11-12 15:14:00,34.1,13.9,30.88,NNW,346,6.0,6.0,43,0.00,,,0.00,299,Wunderground v.1.15,2013-11-12 21:14:00,
2013-11-12 15:19:00,34.3,13.6,30.88,North,355,6.0,6.0,42,0.00,,,0.00,281,Wunderground v.1.15,2013-11-12 21:19:00,
2013-11-12 15:24:00,34.2,14.0,30.88,NNW,334,6.0,9.0,43,0.00,,,0.00,267,Wunderground v.1.15,2013-11-12 21:24:00,
2013-11-12 15:34:00,34.3,13.0,30.88,North,9,5.0,8.0,41,0.00,,,0.00,239,Wunderground v.1.15,2013-11-12 21:34:00,
2013-11-12 15:39:00,34.3,12.4,30.88,NNW,348,5.0,5.0,40,0.00,,,0.00,225,Wunderground v.1.15,2013-11-12 21:39:00,
2013-11-12 15:44:00,34.3,13.0,30.88,North,10,4.0,5.0,41,0.00,,,0.00,211,Wunderground v.1.15,2013-11-12 21:44:00,
2013-11-12 15:54:00,33.9,13.2,30.88,NW,323,4.0,6.0,42,0.00,,,0.00,127,Wunderground v.1.15,2013-11-12 21:54:00,
2013-11-12 15:59:00,33.8,13.1,30.88,NW,321,4.0,6.0,42,0.00,,,0.00,81,Wunderground v.1.15,2013-11-12 21:59:00,
2013-11-12 16:09:00,33.5,13.9,30.87,North,360,5.0,5.0,44,0.00,,,0.00,67,Wunderground v.1.15,2013-11-12 22:09:00,
2013-11-12 16:14:00,33.5,13.4,30.87,North,360,4.0,5.0,43,0.00,,,0.00,28,Wunderground v.1.15,2013-11-12 22:14:00,
2013-11-12 16:19:00,33.4,13.8,30.87,NW,326,4.0,4.0,44,0.00,,,0.00,25,Wunderground v.1.15,2013-11-12 22:19:00,
2013-11-12 16:29:00,33.1,14.0,30.87,North,355,5.0,5.0,45,0.00,,,0.00,30,Wunderground v.1.15,2013-11-12 22:29:00,
2013-11-12 16:35:00,33.0,13.9,30.87,NNW,331,4.0,9.0,45,0.00,,,0.00,21,Wunderground v.1.15,2013-11-12 22:35:00,
2013-11-12 16:40:00,33.0,14.4,30.87,NNW,343,5.0,5.0,46,0.00,,,0.00,16,Wunderground v.1.15,2013-11-12 22:40:00,
2013-11-12 16:45:00,32.6,14.1,30.87,North,355,4.0,5.0,46,0.00,,,0.00,14,Wunderground v.1.15,2013-11-12 22:45:00,
2013-11-12 16:50:00,32.3,13.8,30.87,North,350,4.0,5.0,46,0.00,,,0.00,11,Wunderground v.1.15,2013-11-12 22:50:00,
2013-11-12 17:00:00,-999.9,-99.9,30.87,NNW,342,3.0,3.0,47,0.00,,,0.00,7,Wunderground v.1.15,2013-11-12 23:00:00,
2013-11-12 17:05:00,31.4,13.9,30.87,NNW,327,2.0,3.0,48,0.00,,,0.00,0,Wunderground v.1.15,2013-11-12 23:05:00,
2013-11-12 17:15:00,30.9,13.5,30.86,North,355,2.0,3.0,48,0.00,,,0.00,0,Wunderground v.1.15,2013-11-12 23:15:00,
2013-11-12 17:20:00,30.7,13.8,30.86,North,351,2.0,2.0,49,0.00,,,0.00,0,Wunderground v.1.15,2013-11-12 23:20:00,
2013-11-12 17:30:00,30.2,13.8,30.86,North,355,1.0,1.0,50,0.00,,,0.00,0,Wunderground v.1.15,2013-11-12 23:30:00,
2013-11-12 17:35:00,30.0,13.6,30.86,North,355,1.0,2.0,50,0.00,,,0.00,0,Wunderground v.1.15,2013-11-12 23:35:00,
2013-11-12 17:40:00,29.8,13.9,30.86,North,355,1.0,1.0,51,0.00,,,0.00,0,Wunderground v.1.15,2013-11-12 23:40:00,
2013-11-12 17:50:00,29.6,13.7,30.86,North,5,1.0,2.0,51,0.00,,,0.00,0,Wunderground v.1.15,2013-11-12 23:50:00,
2013-11-12 17:55:00,29.5,13.6,30.86,North,5,1.0,2.0,51,0.00,,,0.00,0,Wunderground v.1.15,2013-11-12 23:55:00,
2013-11-12 18:05:00,29.2,13.7,30.86,North,5,1.0,1.0,52,0.00,,,0.00,0,Wunderground v.1.15,2013-11-13 00:05:00,
2013-11-12 18:10:00,28.8,14.6,30.85,North,5,0.0,1.0,55,0.00,,,0.00,0,Wunderground v.1.15,2013-11-13 00:10:00,
2013-11-12 18:20:00,27.6,14.3,30.86,North,5,0.0,0.0,57,0.00,,,0.00,0,Wunderground v.1.15,2013-11-13 00:20:00,
2013-11-12 18:25:00,27.7,14.4,30.86,North,5,0.0,0.0,57,0.00,,,0.00,0,Wunderground v.1.15,2013-11-13 00:25:00,
2013-11-12 18:30:00,27.8,14.1,30.86,North,5,0.0,0.0,56,0.00,,,0.00,0,Wunderground v.1.15,2013-11-13 00:30:00,
2013-11-12 18:40:00,28.3,13.8,30.85,North,5,0.0,0.0,54,0.00,,,0.00,0,Wunderground v.1.15,2013-11-13 00:40:00,
2013-11-12 18:50:00,28.0,14.7,30.85,North,5,0.0,0.0,57,0.00,,,0.00,0,Wunderground v.1.15,2013-11-13 00:50:00,
2013-11-12 18:55:00,27.2,14.0,30.85,North,5,0.0,0.0,57,0.00,,,0.00,0,Wunderground v.1.15,2013-11-13 00:55:00,
2013-11-12 19:05:00,26.3,13.5,30.85,North,5,0.0,0.0,58,0.00,,,0.00,0,Wunderground v.1.15,2013-11-13 01:05:00,
2013-11-12 19:10:00,26.4,13.6,30.84,North,5,0.0,0.0,58,0.00,,,0.00,0,Wunderground v.1.15,2013-11-13 01:10:00,
2013-11-12 19:15:00,26.3,13.9,30.85,North,5,0.0,0.0,59,0.00,,,0.00,0,Wunderground v.1.15,2013-11-13 01:15:00,
2013-11-12 19:25:00,26.2,13.8,30.85,North,5,0.0,0.0,59,0.00,,,0.00,0,Wunderground v.1.15,2013-11-13 01:25:00,
2013-11-12 19:30:00,26.4,14.4,30.85,North,5,0.0,0.0,60,0.00,,,0.00,0,Wunderground v.1.15,2013-11-13 01:30:00,
2013-11-12 19:40:00,26.1,14.5,30.85,North,5,0.0,0.0,61,0.00,,,0.00,0,Wunderground v.1.15,2013-11-13 01:40:00,
2013-11-12 19:45:00,26.0,14.8,30.85,North,5,0.0,0.0,62,0.00,,,0.00,0,Wunderground v.1.15,2013-11-13 01:45:00,
2013-11-12 19:55:00,25.1,13.9,30.85,North,5,0.0,0.0,62,0.00,,,0.00,0,Wunderground v.1.15,2013-11-13 01:55:00,
2013-11-12 20:00:00,24.2,13.4,30.85,North,5,0.0,0.0,63,0.00,,,0.00,0,Wunderground v.1.15,2013-11-13 02:00:00,
2013-11-12 20:05:00,24.5,13.7,30.85,North,5,0.0,0.0,63,0.00,,,0.00,0,Wunderground v.1.15,2013-11-13 02:05:00,
2013-11-12 20:15:00,25.4,14.2,30.85,North,5,0.0,0.0,62,0.00,,,0.00,0,Wunderground v.1.15,2013-11-13 02:15:00,
2013-11-12 20:20:00,25.2,14.7,30.85,North,5,0.0,0.0,64,0.00,,,0.00,0,Wunderground v.1.15,2013-11-13 02:20:00,
2013-11-12 20:30:00,24.5,14.4,30.85,North,5,0.0,0.0,65,0.00,,,0.00,0,Wunderground v.1.15,2013-11-13 02:30:00,
2013-11-12 20:35:00,23.6,13.9,30.85,North,5,0.0,0.0,66,0.00,,,0.00,0,Wunderground v.1.15,2013-11-13 02:35:00,
2013-11-12 20:40:00,23.5,14.5,30.85,North,5,0.0,0.0,68,0.00,,,0.00,0,Wunderground v.1.15,2013-11-13 02:40:00,
2013-11-12 20:50:00,24.3,14.6,30.85,North,5,0.0,0.0,66,0.00,,,0.00,0,Wunderground v.1.15,2013-11-13 02:50:00,
2013-11-12 20:55:00,24.2,14.8,30.85,North,5,0.0,0.0,67,0.00,,,0.00,0,Wunderground v.1.15,2013-11-13 02:55:00,
2013-11-12 21:05:00,24.0,15.6,30.85,North,5,0.0,0.0,70,0.00,,,0.00,0,Wunderground v.1.15,2013-11-13 03:05:00,
2013-11-12 21:10:00,23.8,15.4,30.85,North,5,0.0,0.0,70,0.00,,,0.00,0,Wunderground v.1.15,2013-11-13 03:10:00,
2013-11-12 21:20:00,23.7,15.0,30.85,North,5,0.0,0.0,69,0.00,,,0.00,0,Wunderground v.1.15,2013-11-13 03:20:00,
2013-11-12 21:25:00,22.5,14.5,30.85,North,5,0.0,0.0,71,0.00,,,0.00,0,Wunderground v.1.15,2013-11-13 03:25:00,
2013-11-12 21:30:00,22.0,15.3,30.86,North,5,0.0,0.0,75,0.00,,,0.00,0,Wunderground v.1.15,2013-11-13 03:30:00,
2013-11-12 21:40:00,22.3,15.3,30.86,North,5,0.0,0.0,74,0.00,,,0.00,0,Wunderground v.1.15,2013-11-13 03:40:00,
2013-11-12 21:45:00,22.0,15.3,30.86,North,5,0.0,0.0,75,0.00,,,0.00,0,Wunderground v.1.15,2013-11-13 03:45:00,
2013-11-12 21:55:00,22.0,15.3,30.86,North,5,0.0,0.0,75,0.00,,,0.00,0,Wunderground v.1.15,2013-11-13 03:55:00,
2013-11-12 22:00:00,21.6,15.2,30.86,North,5,0.0,0.0,76,0.00,,,0.00,0,Wunderground v.1.15,2013-11-13 04:00:00,
2013-11-12 22:05:00,21.7,15.9,30.86,North,5,0.0,0.0,78,0.00,,,0.00,0,Wunderground v.1.15,2013-11-13 04:05:00,
2013-11-12 22:15:00,22.4,15.7,30.86,North,5,0.0,0.0,75,0.00,,,0.00,0,Wunderground v.1.15,2013-11-13 04:15:00,
2013-11-12 22:20:00,22.0,15.3,30.85,North,5,0.0,0.0,75,0.00,,,0.00,0,Wunderground v.1.15,2013-11-13 04:20:00,
2013-11-12 22:25:00,21.7,15.6,30.85,North,5,0.0,0.0,77,0.00,,,0.00,0,Wunderground v.1.15,2013-11-13 04:25:00,
2013-11-12 22:35:00,20.8,15.3,30.85,North,5,0.0,0.0,79,0.00,,,0.00,0,Wunderground v.1.15,2013-11-13 04:35:00,
2013-11-12 22:40:00,20.7,15.5,30.85,North,5,0.0,0.0,80,0.00,,,0.00,0,Wunderground v.1.15,2013-11-13 04:40:00,
2013-11-12 22:50:00,21.3,15.5,30.85,North,5,0.0,0.0,78,0.00,,,0.00,0,Wunderground v.1.15,2013-11-13 04:50:00,
2013-11-12 22:55:00,21.3,15.5,30.85,North,5,0.0,0.0,78,0.00,,,0.00,0,Wunderground v.1.15,2013-11-13 04:55:00,
2013-11-12 23:05:00,21.3,15.5,30.85,North,5,0.0,0.0,78,0.00,,,0.00,0,Wunderground v.1.15,2013-11-13 05:05:00,
2013-11-12 23:10:00,21.4,15.3,30.85,North,5,0.0,0.0,77,0.00,,,0.00,0,Wunderground v.1.15,2013-11-13 05:10:00,
2013-11-12 23:15:00,21.5,15.4,30.85,North,5,0.0,0.0,77,0.00,,,0.00,0,Wunderground v.1.15,2013-11-13 05:15:00,
2013-11-12 23:25:00,21.6,15.2,30.85,North,5,0.0,0.0,76,0.00,,,0.00,0,Wunderground v.1.15,2013-11-13 05:25:00,
2013-11-12 23:30:00,21.7,15.3,30.85,North,5,0.0,0.0,76,0.00,,,0.00,0,Wunderground v.1.15,2013-11-13 05:30:00,
2013-11-12 23:35:00,21.8,15.1,30.85,North,5,0.0,0.0,75,0.00,,,0.00,0,Wunderground v.1.15,2013-11-13 05:35:00,
2013-11-12 23:45:00,21.6,15.2,30.85,North,5,0.0,0.0,76,0.00,,,0.00,0,Wunderground v.1.15,2013-11-13 05:45:00,
2013-11-12 23:50:00,21.8,15.4,30.85,North,5,0.0,0.0,76,0.00,,,0.00,0,Wunderground v.1.15,2013-11-13 05:50:00,